Cruz Sagrada — CUHG3 — position and weather

sailwx.info

Track history (hours):
 
Tides and Currents Weather Stations Pressure Air Temp Water Temp Dewpoint Dewpoint Depression Visibility Wind Speed Wind Dir Waves Ship Positions

Cruz Sagrada

Last reported at 2018-Feb-22 11:00 UTC. Time now 2018-Feb-22 11:15 UTC.
Position N 38°22' W 008°59'.

Length 18 m.

Type: Fishing. MMSI: 263290000.

Date/timePositionNaut miles runAvg speedWind from/ knotsBaromVisibWave heightAir tempDewpointWater temp
2018-Feb-22 11:00N 38°22' W 008°59'1 1.8
2018-Feb-22 10:30N 38°21' W 008°58'0 0.9
2018-Feb-22 10:00N 38°22' W 008°58'0 1.0
2018-Feb-22 09:30N 38°22' W 008°59'1 1.1
2018-Feb-22 09:00N 38°22' W 008°59'0 0.9
2018-Feb-22 08:30N 38°22' W 008°60'0 0.9
2018-Feb-22 08:00N 38°23' W 009°00'0 0.9
2018-Feb-22 07:29N 38°23' W 009°01'1 1.1
2018-Feb-22 07:00N 38°23' W 009°01'0 0.9
2018-Feb-22 06:30N 38°23' W 009°02'0 0.3
2018-Feb-22 06:00N 38°23' W 009°02'0 0.1
2018-Feb-22 05:30N 38°23' W 009°02'1 1.1
2018-Feb-22 05:00N 38°23' W 009°01'3 5.8
2018-Feb-22 04:30N 38°22' W 008°58'2 3.6
2018-Feb-22 04:00N 38°21' W 009°00'3 5.0
2018-Feb-22 03:30N 38°21' W 009°03'2 4.5
2018-Feb-22 03:00N 38°20' W 009°06'2 0.8
2018-Feb-22 00:58N 38°21' W 009°04'2 0.8
2018-Feb-21 22:27N 38°20' W 009°06'0 0.7
2018-Feb-21 22:01N 38°19' W 009°07'3 5.5
2018-Feb-21 21:30N 38°22' W 009°06'3 6.6
2018-Feb-21 21:01N 38°25' W 009°06'1 2.0
2018-Feb-21 20:30N 38°26' W 009°07'0 0.0
2018-Feb-21 20:00N 38°26' W 009°07'0 0.0
2018-Feb-21 19:30N 38°26' W 009°07'0 0.0
2018-Feb-21 19:01N 38°26' W 009°07'0 0.0
2018-Feb-21 18:30N 38°26' W 009°07'0 0.0
2018-Feb-21 18:00N 38°26' W 009°07'0 0.0
2018-Feb-21 17:30N 38°26' W 009°07'0 0.0
2018-Feb-21 17:00N 38°26' W 009°07'0 0.0
2018-Feb-21 16:29N 38°26' W 009°07'0 0.0
2018-Feb-21 16:01N 38°26' W 009°07'0 0.0
2018-Feb-21 15:29N 38°26' W 009°07'0 0.0
2018-Feb-21 15:00N 38°26' W 009°07'0 0.0
2018-Feb-21 14:30N 38°26' W 009°07'0 0.0
2018-Feb-21 13:58N 38°26' W 009°07'0 0.0
2018-Feb-21 13:28N 38°26' W 009°07'0 0.0
2018-Feb-21 12:59N 38°26' W 009°07'0 0.0
2018-Feb-21 12:30N 38°26' W 009°07'0 0.0
2018-Feb-21 12:00N 38°26' W 009°07'0 0.0
2018-Feb-21 11:30N 38°26' W 009°07'0 0.0
2018-Feb-21 11:00N 38°26' W 009°07'0 0.0
2018-Feb-21 10:30N 38°26' W 009°07'0 0.0
2018-Feb-21 10:00N 38°26' W 009°07'0 0.0
2018-Feb-21 09:30N 38°26' W 009°07'0 0.0
2018-Feb-21 09:00N 38°26' W 009°07'0 0.0
2018-Feb-21 08:31N 38°26' W 009°07'0 0.0
2018-Feb-21 08:00N 38°26' W 009°07'0 0.0
2018-Feb-21 07:31N 38°26' W 009°07'0 0.0
2018-Feb-21 07:00N 38°26' W 009°07'2 5.0
2018-Feb-21 06:30N 38°25' W 009°04'3 6.0
2018-Feb-21 06:00N 38°23' W 009°01'3 6.7
2018-Feb-21 05:30N 38°21' W 008°58'3 6.2
2018-Feb-21 05:00N 38°21' W 009°01'2 0.9
2018-Feb-21 02:20N 38°21' W 009°04'1 0.7
2018-Feb-21 01:34N 38°20' W 009°05'0 0.6
2018-Feb-21 01:30N 38°20' W 009°05'1 0.7
2018-Feb-20 23:25N 38°20' W 009°06'0 0.7
2018-Feb-20 22:59N 38°19' W 009°07'1 1.2
2018-Feb-20 22:30N 38°20' W 009°07'3 6.3
2018-Feb-20 22:00N 38°23' W 009°06'3 0.3
2018-Feb-20 09:49N 38°26' W 009°07'0 0.0
2018-Feb-20 09:27N 38°26' W 009°07'0 0.1
2018-Feb-20 09:01N 38°26' W 009°07'0 0.0
2018-Feb-20 08:30N 38°26' W 009°07'3 5.4
2018-Feb-20 08:00N 38°24' W 009°06'3 6.8
2018-Feb-20 07:30N 38°20' W 009°06'1 2.2
2018-Feb-20 07:01N 38°20' W 009°05'1 1.8
2018-Feb-20 06:31N 38°20' W 009°04'0 0.5
2018-Feb-20 06:00N 38°21' W 009°04'0 0.6
2018-Feb-20 05:30N 38°21' W 009°04'0 0.6
2018-Feb-20 05:01N 38°21' W 009°05'0 0.5
2018-Feb-20 04:30N 38°21' W 009°05'0 0.3
2018-Feb-20 04:01N 38°21' W 009°05'0 0.2
2018-Feb-20 03:30N 38°21' W 009°05'0 0.5
2018-Feb-20 03:01N 38°20' W 009°05'0 0.4
2018-Feb-20 02:30N 38°20' W 009°05'1 0.6
2018-Feb-20 00:32N 38°20' W 009°07'0 0.3
2018-Feb-20 00:30N 38°20' W 009°07'0 0.5
2018-Feb-20 00:00N 38°20' W 009°07'3 5.3
2018-Feb-19 23:30N 38°23' W 009°07'3 5.6
2018-Feb-19 23:01N 38°25' W 009°06'1 0.1
2018-Feb-19 07:41N 38°26' W 009°07'0 0.0
2018-Feb-19 07:30N 38°26' W 009°07'0 0.0
2018-Feb-19 07:00N 38°26' W 009°07'0 0.3
2018-Feb-19 06:30N 38°26' W 009°07'3 5.0
2018-Feb-19 06:00N 38°24' W 009°07'3 5.2
2018-Feb-19 05:30N 38°21' W 009°07'3 2.9
2018-Feb-19 04:34N 38°20' W 009°04'0 3.9
2018-Feb-19 04:30N 38°20' W 009°04'0 0.8
2018-Feb-19 04:00N 38°21' W 009°04'0 0.6
2018-Feb-19 03:30N 38°21' W 009°04'0 0.7
2018-Feb-19 03:00N 38°21' W 009°04'0 0.9
2018-Feb-19 02:31N 38°21' W 009°05'1 0.8
2018-Feb-19 01:28N 38°20' W 009°06'0 0.8
2018-Feb-19 01:00N 38°20' W 009°06'0 0.8
2018-Feb-19 00:30N 38°20' W 009°07'0 0.5
2018-Feb-19 00:00N 38°20' W 009°07'0 0.8
2018-Feb-18 23:30N 38°19' W 009°07'0 0.5
2018-Feb-18 23:00N 38°20' W 009°07'0 1.0
2018-Feb-18 22:30N 38°19' W 009°07'0 0.4
2018-Feb-18 22:00N 38°19' W 009°07'0 0.3
2018-Feb-18 21:30N 38°19' W 009°07'0 0.3
2018-Feb-18 21:00N 38°20' W 009°07'1 2.6
2018-Feb-18 20:30N 38°19' W 009°09'2 3.7
2018-Feb-18 19:58N 38°20' W 009°11'2 4.4
2018-Feb-18 19:30N 38°22' W 009°12'2 4.4
2018-Feb-18 19:00N 38°24' W 009°14'2 4.5
2018-Feb-18 18:30N 38°26' W 009°16'2 4.4
2018-Feb-18 18:00N 38°27' W 009°17'2 4.3
2018-Feb-18 17:30N 38°29' W 009°19'2 4.4
2018-Feb-18 17:00N 38°31' W 009°20'2 4.4
2018-Feb-18 16:30N 38°33' W 009°22'3 6.1
2018-Feb-18 16:00N 38°36' W 009°23'2 4.4
2018-Feb-18 15:30N 38°38' W 009°25'1 1.3
2018-Feb-18 15:00N 38°38' W 009°25'1 1.0
2018-Feb-18 14:30N 38°38' W 009°26'1 1.1
2018-Feb-18 14:00N 38°39' W 009°26'1 1.3
2018-Feb-18 13:30N 38°39' W 009°27'1 1.1
2018-Feb-18 13:00N 38°40' W 009°27'1 1.3
2018-Feb-18 12:29N 38°39' W 009°28'1 1.5
2018-Feb-18 12:00N 38°39' W 009°27'1 2.3
2018-Feb-18 11:30N 38°38' W 009°26'0 0.9
2018-Feb-18 11:00N 38°38' W 009°26'0 0.9
2018-Feb-18 10:30N 38°38' W 009°26'2 4.0
2018-Feb-18 10:00N 38°36' W 009°24'2 4.6
2018-Feb-18 09:30N 38°34' W 009°23'3 4.7
2018-Feb-18 08:58N 38°32' W 009°21'2 4.9
2018-Feb-18 08:29N 38°30' W 009°20'2 4.9
2018-Feb-18 08:00N 38°28' W 009°18'3 5.2
2018-Feb-18 07:30N 38°26' W 009°16'3 5.1
2018-Feb-18 07:00N 38°24' W 009°14'2 4.3
2018-Feb-18 06:27N 38°22' W 009°11'2 4.2
2018-Feb-18 05:59N 38°21' W 009°10'2 4.1
2018-Feb-18 05:30N 38°20' W 009°08'3 5.1
2018-Feb-18 05:01N 38°21' W 009°05'1 1.5
2018-Feb-18 04:29N 38°20' W 009°04'0 0.5
2018-Feb-18 04:00N 38°21' W 009°04'0 0.7
2018-Feb-18 03:30N 38°21' W 009°04'0 0.8
2018-Feb-18 03:00N 38°21' W 009°05'0 0.9
2018-Feb-18 02:31N 38°20' W 009°05'0 0.8
2018-Feb-18 02:00N 38°20' W 009°06'0 0.8
2018-Feb-18 01:30N 38°20' W 009°06'0 0.7
2018-Feb-18 01:01N 38°20' W 009°06'0 0.7
2018-Feb-18 00:30N 38°20' W 009°07'0 0.3
2018-Feb-17 23:59N 38°20' W 009°07'0 0.1
2018-Feb-17 23:26N 38°20' W 009°07'1 2.9
2018-Feb-17 23:00N 38°20' W 009°08'1 2.0
2018-Feb-17 22:30N 38°21' W 009°09'2 4.2
2018-Feb-17 22:00N 38°22' W 009°11'2 4.5
2018-Feb-17 21:28N 38°24' W 009°14'2 4.5
2018-Feb-17 21:00N 38°25' W 009°16'2 4.6
2018-Feb-17 20:29N 38°27' W 009°18'2 5.0
2018-Feb-17 20:00N 38°29' W 009°19'3 5.1
2018-Feb-17 19:31N 38°31' W 009°21'3 5.1
2018-Feb-17 19:00N 38°33' W 009°23'2 4.9
2018-Feb-17 18:30N 38°36' W 009°24'3 5.7
2018-Feb-17 18:00N 38°38' W 009°27'2 3.8
2018-Feb-17 17:30N 38°40' W 009°27'3 5.3
2018-Feb-17 17:00N 38°38' W 009°25'2 3.3
2018-Feb-17 16:30N 38°39' W 009°27'1 1.1
2018-Feb-17 16:00N 38°39' W 009°27'0 1.0
2018-Feb-17 15:30N 38°39' W 009°28'0 0.6
2018-Feb-17 15:00N 38°40' W 009°27'0 0.4
2018-Feb-17 14:30N 38°40' W 009°27'0 0.6
2018-Feb-17 14:00N 38°40' W 009°27'0 0.8
2018-Feb-17 13:30N 38°39' W 009°27'0 0.7
2018-Feb-17 13:00N 38°39' W 009°26'0 0.6
2018-Feb-17 12:30N 38°39' W 009°26'0 0.8
2018-Feb-17 12:00N 38°38' W 009°26'0 0.7
2018-Feb-17 11:30N 38°38' W 009°25'0 1.0
2018-Feb-17 11:00N 38°38' W 009°25'0 0.4
2018-Feb-17 10:30N 38°38' W 009°25'1 1.1
2018-Feb-17 10:00N 38°37' W 009°24'3 5.2
2018-Feb-17 09:30N 38°35' W 009°23'3 6.1
2018-Feb-17 09:00N 38°32' W 009°21'3 6.2
2018-Feb-17 08:30N 38°29' W 009°19'3 6.3
2018-Feb-17 08:01N 38°27' W 009°17'3 6.3
2018-Feb-17 07:31N 38°24' W 009°15'4 6.3
2018-Feb-17 06:57N 38°22' W 009°11'5 5.4
2018-Feb-17 06:04N 38°20' W 009°05'1 5.0
2018-Feb-17 05:47N 38°20' W 009°04'0 0.5
2018-Feb-17 05:29N 38°20' W 009°04'2 0.5
2018-Feb-17 00:26N 38°20' W 009°07'0 0.7
2018-Feb-16 23:59N 38°20' W 009°07'1 2.0
2018-Feb-16 23:30N 38°20' W 009°07'3 6.1
2018-Feb-16 23:00N 38°24' W 009°07'3 5.1
2018-Feb-16 22:28N 38°26' W 009°07'0 0.0
2018-Feb-16 20:46N 38°26' W 009°07'0 0.0
2018-Feb-16 20:19N 38°26' W 009°07'0 0.0
2018-Feb-16 20:00N 38°26' W 009°07'0 0.0
2018-Feb-16 19:30N 38°26' W 009°07'0 0.0
2018-Feb-16 19:00N 38°26' W 009°07'0 0.0
2018-Feb-16 18:30N 38°26' W 009°07'0 0.0
2018-Feb-16 18:00N 38°26' W 009°07'0 0.0
2018-Feb-16 17:30N 38°26' W 009°07'0 0.0
2018-Feb-16 16:57N 38°26' W 009°07'0 0.0
2018-Feb-16 16:30N 38°26' W 009°07'0 0.0
2018-Feb-16 15:59N 38°26' W 009°07'0 0.0
2018-Feb-16 15:30N 38°26' W 009°07'0 0.0
2018-Feb-16 15:00N 38°26' W 009°07'0 0.0
2018-Feb-16 14:29N 38°26' W 009°07'0 0.0
2018-Feb-16 13:59N 38°26' W 009°07'0 0.0
2018-Feb-16 13:27N 38°26' W 009°07'0 0.0
2018-Feb-16 12:59N 38°26' W 009°07'0 0.0
2018-Feb-16 12:29N 38°26' W 009°07'0 0.0
2018-Feb-16 11:58N 38°26' W 009°07'0 0.0
2018-Feb-16 11:30N 38°26' W 009°07'0 0.0
2018-Feb-16 10:58N 38°26' W 009°07'0 0.0
2018-Feb-16 10:30N 38°26' W 009°07'0 0.0
2018-Feb-16 10:00N 38°26' W 009°07'0 0.0
2018-Feb-16 09:30N 38°26' W 009°07'0 0.0
2018-Feb-16 09:00N 38°26' W 009°07'0 0.0
2018-Feb-16 08:30N 38°26' W 009°07'0 0.0
2018-Feb-16 08:00N 38°26' W 009°07'0 0.0
2018-Feb-16 07:30N 38°26' W 009°07'2 3.8
2018-Feb-16 06:58N 38°24' W 009°06'3 7.1
2018-Feb-16 06:28N 38°21' W 009°07'1 2.6
2018-Feb-16 06:01N 38°20' W 009°05'1 2.6
2018-Feb-16 05:30N 38°20' W 009°04'0 0.6
2018-Feb-16 05:00N 38°21' W 009°04'0 0.8
2018-Feb-16 04:30N 38°21' W 009°04'0 0.7
2018-Feb-16 04:00N 38°21' W 009°05'0 0.9
2018-Feb-16 03:30N 38°20' W 009°05'1 0.7
2018-Feb-16 01:17N 38°20' W 009°07'2 4.7
2018-Feb-16 00:57N 38°21' W 009°08'3 6.8
2018-Feb-16 00:30N 38°23' W 009°12'4 6.9
2018-Feb-15 23:59N 38°25' W 009°15'3 6.8
2018-Feb-15 23:30N 38°28' W 009°17'4 7.0
2018-Feb-15 23:00N 38°30' W 009°20'4 7.0
2018-Feb-15 22:30N 38°33' W 009°22'4 7.5
2018-Feb-15 22:00N 38°37' W 009°24'3 7.0
2018-Feb-15 21:30N 38°39' W 009°27'3 5.1
2018-Feb-15 21:00N 38°38' W 009°25'0 0.3
2018-Feb-15 20:29N 38°38' W 009°25'0 0.9
2018-Feb-15 20:00N 38°38' W 009°25'0 0.8
2018-Feb-15 19:30N 38°38' W 009°26'0 0.9
2018-Feb-15 19:00N 38°39' W 009°26'0 0.9
2018-Feb-15 18:29N 38°39' W 009°26'1 1.3
2018-Feb-15 17:59N 38°40' W 009°27'0 0.6
2018-Feb-15 17:30N 38°40' W 009°27'0 0.7
2018-Feb-15 17:00N 38°40' W 009°28'0 0.6
2018-Feb-15 16:30N 38°39' W 009°27'0 0.6
2018-Feb-15 16:00N 38°39' W 009°27'0 0.5
2018-Feb-15 15:30N 38°39' W 009°27'0 0.9
2018-Feb-15 15:00N 38°39' W 009°26'0 0.8
2018-Feb-15 14:30N 38°38' W 009°26'0 0.8
2018-Feb-15 14:00N 38°38' W 009°26'2 4.7
2018-Feb-15 13:30N 38°36' W 009°24'3 5.0
2018-Feb-15 12:59N 38°34' W 009°22'3 7.0
2018-Feb-15 12:30N 38°31' W 009°19'4 7.5
2018-Feb-15 12:00N 38°28' W 009°17'4 7.4
2018-Feb-15 11:26N 38°25' W 009°14'3 6.4
2018-Feb-15 10:54N 38°25' W 009°09'3 6.7
2018-Feb-15 10:30N 38°26' W 009°06'0 0.1
2018-Feb-15 06:31N 38°26' W 009°07'0 0.0
2018-Feb-15 06:30N 38°26' W 009°07'2 4.2
2018-Feb-15 06:00N 38°24' W 009°07'4 7.4
2018-Feb-15 05:28N 38°21' W 009°08'1 3.2
2018-Feb-15 05:00N 38°20' W 009°07'3 5.2
2018-Feb-15 04:30N 38°20' W 009°04'0 0.8
2018-Feb-15 04:00N 38°21' W 009°04'0 0.7
2018-Feb-15 03:30N 38°21' W 009°04'0 0.6
2018-Feb-15 02:43N 38°21' W 009°05'0 0.9
2018-Feb-15 02:31N 38°21' W 009°05'1 0.9
2018-Feb-15 01:28N 38°20' W 009°06'0 0.7
2018-Feb-15 00:52N 38°20' W 009°06'1 0.6
2018-Feb-14 23:58N 38°20' W 009°07'1 1.1
2018-Feb-14 23:30N 38°20' W 009°07'3 5.9
2018-Feb-14 23:00N 38°23' W 009°07'3 6.4
2018-Feb-14 22:30N 38°26' W 009°07'0 0.1
2018-Feb-14 22:00N 38°26' W 009°07'0 0.0
2018-Feb-14 21:30N 38°26' W 009°07'0 0.0
2018-Feb-14 21:00N 38°26' W 009°07'0 0.0
2018-Feb-14 20:28N 38°26' W 009°07'0 0.0
2018-Feb-14 20:00N 38°26' W 009°07'0 0.0
2018-Feb-14 19:30N 38°26' W 009°07'0 0.0
2018-Feb-14 19:00N 38°26' W 009°07'0 0.0
2018-Feb-14 18:29N 38°26' W 009°07'0 0.0
2018-Feb-14 18:00N 38°26' W 009°07'0 0.0
2018-Feb-14 17:30N 38°26' W 009°07'0 0.0
2018-Feb-14 17:00N 38°26' W 009°07'0 0.0
2018-Feb-14 16:30N 38°26' W 009°07'0 0.1
2018-Feb-14 15:59N 38°26' W 009°07'0 0.0
2018-Feb-14 15:30N 38°26' W 009°07'0 0.0
2018-Feb-14 15:00N 38°26' W 009°07'5 6.1
2018-Feb-14 14:12N 38°24' W 009°12'1 7.3
2018-Feb-14 14:00N 38°25' W 009°14'4 7.5
2018-Feb-14 13:29N 38°28' W 009°17'4 7.5
2018-Feb-14 13:00N 38°31' W 009°19'4 7.5
2018-Feb-14 12:30N 38°34' W 009°22'3 7.1
2018-Feb-14 12:00N 38°37' W 009°24'3 6.7
2018-Feb-14 11:30N 38°40' W 009°27'0 1.0
2018-Feb-14 11:00N 38°39' W 009°27'1 1.0
2018-Feb-14 10:30N 38°39' W 009°26'1 1.3
2018-Feb-14 10:00N 38°38' W 009°26'1 1.3
2018-Feb-14 09:30N 38°38' W 009°25'1 1.1
2018-Feb-14 09:00N 38°38' W 009°25'2 3.9
2018-Feb-14 08:30N 38°36' W 009°23'4 7.2
2018-Feb-14 08:00N 38°33' W 009°21'4 7.2
2018-Feb-14 07:30N 38°30' W 009°18'4 7.5
2018-Feb-14 07:00N 38°27' W 009°16'4 7.4
2018-Feb-14 06:30N 38°24' W 009°13'7 6.0
2018-Feb-14 05:17N 38°21' W 009°05'1 3.0
2018-Feb-14 05:00N 38°20' W 009°04'2 0.4
2018-Feb-13 22:48N 38°20' W 009°07'2 5.9
2018-Feb-13 22:30N 38°22' W 009°06'3 6.5
2018-Feb-13 22:00N 38°25' W 009°06'1 2.6
2018-Feb-13 21:30N 38°26' W 009°07'0 0.0
2018-Feb-13 21:00N 38°26' W 009°07'0 0.0
2018-Feb-13 20:29N 38°26' W 009°07'0 0.0
2018-Feb-13 19:58N 38°26' W 009°07'0 0.0
2018-Feb-13 19:27N 38°26' W 009°07'0 0.0
2018-Feb-13 19:01N 38°26' W 009°07'0 0.0
2018-Feb-13 18:30N 38°26' W 009°07'0 0.0
2018-Feb-13 18:01N 38°26' W 009°07'0 0.0
2018-Feb-13 17:30N 38°26' W 009°07'0 0.0
2018-Feb-13 17:00N 38°26' W 009°07'0 0.0
2018-Feb-13 16:30N 38°26' W 009°07'0 0.0
2018-Feb-13 16:00N 38°26' W 009°07'0 0.0
2018-Feb-13 15:29N 38°26' W 009°07'0 0.0
2018-Feb-13 14:58N 38°26' W 009°07'0 0.0
2018-Feb-13 14:30N 38°26' W 009°07'0 0.0
2018-Feb-13 14:00N 38°26' W 009°07'0 0.0
2018-Feb-13 13:31N 38°26' W 009°07'0 0.0
2018-Feb-13 12:57N 38°26' W 009°07'5 5.4
2018-Feb-13 11:58N 38°24' W 009°13'3 7.0
2018-Feb-13 11:30N 38°27' W 009°16'4 7.0
2018-Feb-13 10:56N 38°30' W 009°19'3 7.3
2018-Feb-13 10:29N 38°33' W 009°21'4 7.5
2018-Feb-13 10:01N 38°36' W 009°24'3 2.9
2018-Feb-13 08:58N 38°38' W 009°25'3 5.8
2018-Feb-13 08:30N 38°36' W 009°23'3 6.5
2018-Feb-13 08:00N 38°33' W 009°21'3 6.5
2018-Feb-13 07:30N 38°30' W 009°19'3 6.7
2018-Feb-13 07:00N 38°28' W 009°17'3 6.5
2018-Feb-13 06:30N 38°25' W 009°15'3 6.4
2018-Feb-13 05:57N 38°23' W 009°11'6 2.0
2018-Feb-13 03:11N 38°21' W 009°05'0 0.8
2018-Feb-13 03:00N 38°21' W 009°05'0 0.9
2018-Feb-13 02:30N 38°21' W 009°05'1 0.5
2018-Feb-12 23:55N 38°20' W 009°07'2 5.7
2018-Feb-12 23:30N 38°22' W 009°07'3 6.4
2018-Feb-12 23:00N 38°25' W 009°06'1 1.8
2018-Feb-12 22:29N 38°26' W 009°07'0 0.0
2018-Feb-12 22:00N 38°26' W 009°07'0 0.0
2018-Feb-12 21:29N 38°26' W 009°07'0 0.0
2018-Feb-12 20:57N 38°26' W 009°07'0 0.0
2018-Feb-12 20:30N 38°26' W 009°07'0 0.0
2018-Feb-12 19:58N 38°26' W 009°07'0 0.0
2018-Feb-12 19:29N 38°26' W 009°07'0 0.0
2018-Feb-12 18:55N 38°26' W 009°07'0 0.0
2018-Feb-12 18:30N 38°26' W 009°07'0 0.0
2018-Feb-12 18:00N 38°26' W 009°07'0 0.0
2018-Feb-12 17:30N 38°26' W 009°07'0 0.0
2018-Feb-12 16:58N 38°26' W 009°07'0 0.0
2018-Feb-12 16:30N 38°26' W 009°07'0 0.0
2018-Feb-12 16:00N 38°26' W 009°07'0 0.0
2018-Feb-12 15:30N 38°26' W 009°07'0 0.0
2018-Feb-12 14:57N 38°26' W 009°07'0 0.6
2018-Feb-12 14:30N 38°26' W 009°06'3 6.4
2018-Feb-12 13:58N 38°23' W 009°06'3 1.9
2018-Feb-12 12:40N 38°21' W 009°04'1 7.1
2018-Feb-12 12:30N 38°22' W 009°04'4 7.1
2018-Feb-12 12:00N 38°25' W 009°06'1 2.5
2018-Feb-12 11:30N 38°26' W 009°07'0 0.0
2018-Feb-12 11:00N 38°26' W 009°07'  
Track history (hours):
 
Tides and Currents Weather Stations Pressure Air Temp Water Temp Dewpoint Dewpoint Depression Visibility Wind Speed Wind Dir Waves Ship Positions

Cruz Sagrada

Last reported at 2018-Feb-22 11:00 UTC. Time now 2018-Feb-22 11:15 UTC.
Position N 38°22' W 008°59'.

Length 18 m.

Type: Fishing. MMSI: 263290000.

Date/timePositionNaut miles runAvg speedWind from/ knotsBaromVisibWave heightAir tempDewpointWater temp
2018-Feb-22 11:00N 38°22' W 008°59'1 1.8
2018-Feb-22 10:30N 38°21' W 008°58'0 0.9
2018-Feb-22 10:00N 38°22' W 008°58'0 1.0
2018-Feb-22 09:30N 38°22' W 008°59'1 1.1
2018-Feb-22 09:00N 38°22' W 008°59'0 0.9
2018-Feb-22 08:30N 38°22' W 008°60'0 0.9
2018-Feb-22 08:00N 38°23' W 009°00'0 0.9
2018-Feb-22 07:29N 38°23' W 009°01'1 1.1
2018-Feb-22 07:00N 38°23' W 009°01'0 0.9
2018-Feb-22 06:30N 38°23' W 009°02'0 0.3
2018-Feb-22 06:00N 38°23' W 009°02'0 0.1
2018-Feb-22 05:30N 38°23' W 009°02'1 1.1
2018-Feb-22 05:00N 38°23' W 009°01'3 5.8
2018-Feb-22 04:30N 38°22' W 008°58'2 3.6
2018-Feb-22 04:00N 38°21' W 009°00'3 5.0
2018-Feb-22 03:30N 38°21' W 009°03'2 4.5
2018-Feb-22 03:00N 38°20' W 009°06'2 0.8
2018-Feb-22 00:58N 38°21' W 009°04'2 0.8
2018-Feb-21 22:27N 38°20' W 009°06'0 0.7
2018-Feb-21 22:01N 38°19' W 009°07'3 5.5
2018-Feb-21 21:30N 38°22' W 009°06'3 6.6
2018-Feb-21 21:01N 38°25' W 009°06'1 2.0
2018-Feb-21 20:30N 38°26' W 009°07'0 0.0
2018-Feb-21 20:00N 38°26' W 009°07'0 0.0
2018-Feb-21 19:30N 38°26' W 009°07'0 0.0
2018-Feb-21 19:01N 38°26' W 009°07'0 0.0
2018-Feb-21 18:30N 38°26' W 009°07'0 0.0
2018-Feb-21 18:00N 38°26' W 009°07'0 0.0
2018-Feb-21 17:30N 38°26' W 009°07'0 0.0
2018-Feb-21 17:00N 38°26' W 009°07'0 0.0
2018-Feb-21 16:29N 38°26' W 009°07'0 0.0
2018-Feb-21 16:01N 38°26' W 009°07'0 0.0
2018-Feb-21 15:29N 38°26' W 009°07'0 0.0
2018-Feb-21 15:00N 38°26' W 009°07'0 0.0
2018-Feb-21 14:30N 38°26' W 009°07'0 0.0
2018-Feb-21 13:58N 38°26' W 009°07'0 0.0
2018-Feb-21 13:28N 38°26' W 009°07'0 0.0
2018-Feb-21 12:59N 38°26' W 009°07'0 0.0
2018-Feb-21 12:30N 38°26' W 009°07'0 0.0
2018-Feb-21 12:00N 38°26' W 009°07'0 0.0
2018-Feb-21 11:30N 38°26' W 009°07'0 0.0
2018-Feb-21 11:00N 38°26' W 009°07'0 0.0
2018-Feb-21 10:30N 38°26' W 009°07'0 0.0
2018-Feb-21 10:00N 38°26' W 009°07'0 0.0
2018-Feb-21 09:30N 38°26' W 009°07'0 0.0
2018-Feb-21 09:00N 38°26' W 009°07'0 0.0
2018-Feb-21 08:31N 38°26' W 009°07'0 0.0
2018-Feb-21 08:00N 38°26' W 009°07'0 0.0
2018-Feb-21 07:31N 38°26' W 009°07'0 0.0
2018-Feb-21 07:00N 38°26' W 009°07'2 5.0
2018-Feb-21 06:30N 38°25' W 009°04'3 6.0
2018-Feb-21 06:00N 38°23' W 009°01'3 6.7
2018-Feb-21 05:30N 38°21' W 008°58'3 6.2
2018-Feb-21 05:00N 38°21' W 009°01'2 0.9
2018-Feb-21 02:20N 38°21' W 009°04'1 0.7
2018-Feb-21 01:34N 38°20' W 009°05'0 0.6
2018-Feb-21 01:30N 38°20' W 009°05'1 0.7
2018-Feb-20 23:25N 38°20' W 009°06'0 0.7
2018-Feb-20 22:59N 38°19' W 009°07'1 1.2
2018-Feb-20 22:30N 38°20' W 009°07'3 6.3
2018-Feb-20 22:00N 38°23' W 009°06'3 0.3
2018-Feb-20 09:49N 38°26' W 009°07'0 0.0
2018-Feb-20 09:27N 38°26' W 009°07'0 0.1
2018-Feb-20 09:01N 38°26' W 009°07'0 0.0
2018-Feb-20 08:30N 38°26' W 009°07'3 5.4
2018-Feb-20 08:00N 38°24' W 009°06'3 6.8
2018-Feb-20 07:30N 38°20' W 009°06'1 2.2
2018-Feb-20 07:01N 38°20' W 009°05'1 1.8
2018-Feb-20 06:31N 38°20' W 009°04'0 0.5
2018-Feb-20 06:00N 38°21' W 009°04'0 0.6
2018-Feb-20 05:30N 38°21' W 009°04'0 0.6
2018-Feb-20 05:01N 38°21' W 009°05'0 0.5
2018-Feb-20 04:30N 38°21' W 009°05'0 0.3
2018-Feb-20 04:01N 38°21' W 009°05'0 0.2
2018-Feb-20 03:30N 38°21' W 009°05'0 0.5
2018-Feb-20 03:01N 38°20' W 009°05'0 0.4
2018-Feb-20 02:30N 38°20' W 009°05'1 0.6
2018-Feb-20 00:32N 38°20' W 009°07'0 0.3
2018-Feb-20 00:30N 38°20' W 009°07'0 0.5
2018-Feb-20 00:00N 38°20' W 009°07'3 5.3
2018-Feb-19 23:30N 38°23' W 009°07'3 5.6
2018-Feb-19 23:01N 38°25' W 009°06'1 0.1
2018-Feb-19 07:41N 38°26' W 009°07'0 0.0
2018-Feb-19 07:30N 38°26' W 009°07'0 0.0
2018-Feb-19 07:00N 38°26' W 009°07'0 0.3
2018-Feb-19 06:30N 38°26' W 009°07'3 5.0
2018-Feb-19 06:00N 38°24' W 009°07'3 5.2
2018-Feb-19 05:30N 38°21' W 009°07'3 2.9
2018-Feb-19 04:34N 38°20' W 009°04'0 3.9
2018-Feb-19 04:30N 38°20' W 009°04'0 0.8
2018-Feb-19 04:00N 38°21' W 009°04'0 0.6
2018-Feb-19 03:30N 38°21' W 009°04'0 0.7
2018-Feb-19 03:00N 38°21' W 009°04'0 0.9
2018-Feb-19 02:31N 38°21' W 009°05'1 0.8
2018-Feb-19 01:28N 38°20' W 009°06'0 0.8
2018-Feb-19 01:00N 38°20' W 009°06'0 0.8
2018-Feb-19 00:30N 38°20' W 009°07'0 0.5
2018-Feb-19 00:00N 38°20' W 009°07'0 0.8
2018-Feb-18 23:30N 38°19' W 009°07'0 0.5
2018-Feb-18 23:00N 38°20' W 009°07'0 1.0
2018-Feb-18 22:30N 38°19' W 009°07'0 0.4
2018-Feb-18 22:00N 38°19' W 009°07'0 0.3
2018-Feb-18 21:30N 38°19' W 009°07'0 0.3
2018-Feb-18 21:00N 38°20' W 009°07'1 2.6
2018-Feb-18 20:30N 38°19' W 009°09'2 3.7
2018-Feb-18 19:58N 38°20' W 009°11'2 4.4
2018-Feb-18 19:30N 38°22' W 009°12'2 4.4
2018-Feb-18 19:00N 38°24' W 009°14'2 4.5
2018-Feb-18 18:30N 38°26' W 009°16'2 4.4
2018-Feb-18 18:00N 38°27' W 009°17'2 4.3
2018-Feb-18 17:30N 38°29' W 009°19'2 4.4
2018-Feb-18 17:00N 38°31' W 009°20'2 4.4
2018-Feb-18 16:30N 38°33' W 009°22'3 6.1
2018-Feb-18 16:00N 38°36' W 009°23'2 4.4
2018-Feb-18 15:30N 38°38' W 009°25'1 1.3
2018-Feb-18 15:00N 38°38' W 009°25'1 1.0
2018-Feb-18 14:30N 38°38' W 009°26'1 1.1
2018-Feb-18 14:00N 38°39' W 009°26'1 1.3
2018-Feb-18 13:30N 38°39' W 009°27'1 1.1
2018-Feb-18 13:00N 38°40' W 009°27'1 1.3
2018-Feb-18 12:29N 38°39' W 009°28'1 1.5
2018-Feb-18 12:00N 38°39' W 009°27'1 2.3
2018-Feb-18 11:30N 38°38' W 009°26'0 0.9
2018-Feb-18 11:00N 38°38' W 009°26'0 0.9
2018-Feb-18 10:30N 38°38' W 009°26'2 4.0
2018-Feb-18 10:00N 38°36' W 009°24'2 4.6
2018-Feb-18 09:30N 38°34' W 009°23'3 4.7
2018-Feb-18 08:58N 38°32' W 009°21'2 4.9
2018-Feb-18 08:29N 38°30' W 009°20'2 4.9
2018-Feb-18 08:00N 38°28' W 009°18'3 5.2
2018-Feb-18 07:30N 38°26' W 009°16'3 5.1
2018-Feb-18 07:00N 38°24' W 009°14'2 4.3
2018-Feb-18 06:27N 38°22' W 009°11'2 4.2
2018-Feb-18 05:59N 38°21' W 009°10'2 4.1
2018-Feb-18 05:30N 38°20' W 009°08'3 5.1
2018-Feb-18 05:01N 38°21' W 009°05'1 1.5
2018-Feb-18 04:29N 38°20' W 009°04'0 0.5
2018-Feb-18 04:00N 38°21' W 009°04'0 0.7
2018-Feb-18 03:30N 38°21' W 009°04'0 0.8
2018-Feb-18 03:00N 38°21' W 009°05'0 0.9
2018-Feb-18 02:31N 38°20' W 009°05'0 0.8
2018-Feb-18 02:00N 38°20' W 009°06'0 0.8
2018-Feb-18 01:30N 38°20' W 009°06'0 0.7
2018-Feb-18 01:01N 38°20' W 009°06'0 0.7
2018-Feb-18 00:30N 38°20' W 009°07'0 0.3
2018-Feb-17 23:59N 38°20' W 009°07'0 0.1
2018-Feb-17 23:26N 38°20' W 009°07'1 2.9
2018-Feb-17 23:00N 38°20' W 009°08'1 2.0
2018-Feb-17 22:30N 38°21' W 009°09'2 4.2
2018-Feb-17 22:00N 38°22' W 009°11'2 4.5
2018-Feb-17 21:28N 38°24' W 009°14'2 4.5
2018-Feb-17 21:00N 38°25' W 009°16'2 4.6
2018-Feb-17 20:29N 38°27' W 009°18'2 5.0
2018-Feb-17 20:00N 38°29' W 009°19'3 5.1
2018-Feb-17 19:31N 38°31' W 009°21'3 5.1
2018-Feb-17 19:00N 38°33' W 009°23'2 4.9
2018-Feb-17 18:30N 38°36' W 009°24'3 5.7
2018-Feb-17 18:00N 38°38' W 009°27'2 3.8
2018-Feb-17 17:30N 38°40' W 009°27'3 5.3
2018-Feb-17 17:00N 38°38' W 009°25'2 3.3
2018-Feb-17 16:30N 38°39' W 009°27'1 1.1
2018-Feb-17 16:00N 38°39' W 009°27'0 1.0
2018-Feb-17 15:30N 38°39' W 009°28'0 0.6
2018-Feb-17 15:00N 38°40' W 009°27'0 0.4
2018-Feb-17 14:30N 38°40' W 009°27'0 0.6
2018-Feb-17 14:00N 38°40' W 009°27'0 0.8
2018-Feb-17 13:30N 38°39' W 009°27'0 0.7
2018-Feb-17 13:00N 38°39' W 009°26'0 0.6
2018-Feb-17 12:30N 38°39' W 009°26'0 0.8
2018-Feb-17 12:00N 38°38' W 009°26'0 0.7
2018-Feb-17 11:30N 38°38' W 009°25'0 1.0
2018-Feb-17 11:00N 38°38' W 009°25'0 0.4
2018-Feb-17 10:30N 38°38' W 009°25'1 1.1
2018-Feb-17 10:00N 38°37' W 009°24'3 5.2
2018-Feb-17 09:30N 38°35' W 009°23'3 6.1
2018-Feb-17 09:00N 38°32' W 009°21'3 6.2
2018-Feb-17 08:30N 38°29' W 009°19'3 6.3
2018-Feb-17 08:01N 38°27' W 009°17'3 6.3
2018-Feb-17 07:31N 38°24' W 009°15'4 6.3
2018-Feb-17 06:57N 38°22' W 009°11'5 5.4
2018-Feb-17 06:04N 38°20' W 009°05'1 5.0
2018-Feb-17 05:47N 38°20' W 009°04'0 0.5
2018-Feb-17 05:29N 38°20' W 009°04'2 0.5
2018-Feb-17 00:26N 38°20' W 009°07'0 0.7
2018-Feb-16 23:59N 38°20' W 009°07'1 2.0
2018-Feb-16 23:30N 38°20' W 009°07'3 6.1
2018-Feb-16 23:00N 38°24' W 009°07'3 5.1
2018-Feb-16 22:28N 38°26' W 009°07'0 0.0
2018-Feb-16 20:46N 38°26' W 009°07'0 0.0
2018-Feb-16 20:19N 38°26' W 009°07'0 0.0
2018-Feb-16 20:00N 38°26' W 009°07'0 0.0
2018-Feb-16 19:30N 38°26' W 009°07'0 0.0
2018-Feb-16 19:00N 38°26' W 009°07'0 0.0
2018-Feb-16 18:30N 38°26' W 009°07'0 0.0
2018-Feb-16 18:00N 38°26' W 009°07'0 0.0
2018-Feb-16 17:30N 38°26' W 009°07'0 0.0
2018-Feb-16 16:57N 38°26' W 009°07'0 0.0
2018-Feb-16 16:30N 38°26' W 009°07'0 0.0
2018-Feb-16 15:59N 38°26' W 009°07'0 0.0
2018-Feb-16 15:30N 38°26' W 009°07'0 0.0
2018-Feb-16 15:00N 38°26' W 009°07'0 0.0
2018-Feb-16 14:29N 38°26' W 009°07'0 0.0
2018-Feb-16 13:59N 38°26' W 009°07'0 0.0
2018-Feb-16 13:27N 38°26' W 009°07'0 0.0
2018-Feb-16 12:59N 38°26' W 009°07'0 0.0
2018-Feb-16 12:29N 38°26' W 009°07'0 0.0
2018-Feb-16 11:58N 38°26' W 009°07'0 0.0
2018-Feb-16 11:30N 38°26' W 009°07'0 0.0
2018-Feb-16 10:58N 38°26' W 009°07'0 0.0
2018-Feb-16 10:30N 38°26' W 009°07'0 0.0
2018-Feb-16 10:00N 38°26' W 009°07'0 0.0
2018-Feb-16 09:30N 38°26' W 009°07'0 0.0
2018-Feb-16 09:00N 38°26' W 009°07'0 0.0
2018-Feb-16 08:30N 38°26' W 009°07'0 0.0
2018-Feb-16 08:00N 38°26' W 009°07'0 0.0
2018-Feb-16 07:30N 38°26' W 009°07'2 3.8
2018-Feb-16 06:58N 38°24' W 009°06'3 7.1
2018-Feb-16 06:28N 38°21' W 009°07'1 2.6
2018-Feb-16 06:01N 38°20' W 009°05'1 2.6
2018-Feb-16 05:30N 38°20' W 009°04'0 0.6
2018-Feb-16 05:00N 38°21' W 009°04'0 0.8
2018-Feb-16 04:30N 38°21' W 009°04'0 0.7
2018-Feb-16 04:00N 38°21' W 009°05'0 0.9
2018-Feb-16 03:30N 38°20' W 009°05'1 0.7
2018-Feb-16 01:17N 38°20' W 009°07'2 4.7
2018-Feb-16 00:57N 38°21' W 009°08'3 6.8
2018-Feb-16 00:30N 38°23' W 009°12'4 6.9
2018-Feb-15 23:59N 38°25' W 009°15'3 6.8
2018-Feb-15 23:30N 38°28' W 009°17'4 7.0
2018-Feb-15 23:00N 38°30' W 009°20'4 7.0
2018-Feb-15 22:30N 38°33' W 009°22'4 7.5
2018-Feb-15 22:00N 38°37' W 009°24'3 7.0
2018-Feb-15 21:30N 38°39' W 009°27'3 5.1
2018-Feb-15 21:00N 38°38' W 009°25'0 0.3
2018-Feb-15 20:29N 38°38' W 009°25'0 0.9
2018-Feb-15 20:00N 38°38' W 009°25'0 0.8
2018-Feb-15 19:30N 38°38' W 009°26'0 0.9
2018-Feb-15 19:00N 38°39' W 009°26'0 0.9
2018-Feb-15 18:29N 38°39' W 009°26'1 1.3
2018-Feb-15 17:59N 38°40' W 009°27'0 0.6
2018-Feb-15 17:30N 38°40' W 009°27'0 0.7
2018-Feb-15 17:00N 38°40' W 009°28'0 0.6
2018-Feb-15 16:30N 38°39' W 009°27'0 0.6
2018-Feb-15 16:00N 38°39' W 009°27'0 0.5
2018-Feb-15 15:30N 38°39' W 009°27'0 0.9
2018-Feb-15 15:00N 38°39' W 009°26'0 0.8
2018-Feb-15 14:30N 38°38' W 009°26'0 0.8
2018-Feb-15 14:00N 38°38' W 009°26'2 4.7
2018-Feb-15 13:30N 38°36' W 009°24'3 5.0
2018-Feb-15 12:59N 38°34' W 009°22'3 7.0
2018-Feb-15 12:30N 38°31' W 009°19'4 7.5
2018-Feb-15 12:00N 38°28' W 009°17'4 7.4
2018-Feb-15 11:26N 38°25' W 009°14'3 6.4
2018-Feb-15 10:54N 38°25' W 009°09'3 6.7
2018-Feb-15 10:30N 38°26' W 009°06'0 0.1
2018-Feb-15 06:31N 38°26' W 009°07'0 0.0
2018-Feb-15 06:30N 38°26' W 009°07'2 4.2
2018-Feb-15 06:00N 38°24' W 009°07'4 7.4
2018-Feb-15 05:28N 38°21' W 009°08'1 3.2
2018-Feb-15 05:00N 38°20' W 009°07'3 5.2
2018-Feb-15 04:30N 38°20' W 009°04'0 0.8
2018-Feb-15 04:00N 38°21' W 009°04'0 0.7
2018-Feb-15 03:30N 38°21' W 009°04'0 0.6
2018-Feb-15 02:43N 38°21' W 009°05'0 0.9
2018-Feb-15 02:31N 38°21' W 009°05'1 0.9
2018-Feb-15 01:28N 38°20' W 009°06'0 0.7
2018-Feb-15 00:52N 38°20' W 009°06'1 0.6
2018-Feb-14 23:58N 38°20' W 009°07'1 1.1
2018-Feb-14 23:30N 38°20' W 009°07'3 5.9
2018-Feb-14 23:00N 38°23' W 009°07'3 6.4
2018-Feb-14 22:30N 38°26' W 009°07'0 0.1
2018-Feb-14 22:00N 38°26' W 009°07'0 0.0
2018-Feb-14 21:30N 38°26' W 009°07'0 0.0
2018-Feb-14 21:00N 38°26' W 009°07'0 0.0
2018-Feb-14 20:28N 38°26' W 009°07'0 0.0
2018-Feb-14 20:00N 38°26' W 009°07'0 0.0
2018-Feb-14 19:30N 38°26' W 009°07'0 0.0
2018-Feb-14 19:00N 38°26' W 009°07'0 0.0
2018-Feb-14 18:29N 38°26' W 009°07'0 0.0
2018-Feb-14 18:00N 38°26' W 009°07'0 0.0
2018-Feb-14 17:30N 38°26' W 009°07'0 0.0
2018-Feb-14 17:00N 38°26' W 009°07'0 0.0
2018-Feb-14 16:30N 38°26' W 009°07'0 0.1
2018-Feb-14 15:59N 38°26' W 009°07'0 0.0
2018-Feb-14 15:30N 38°26' W 009°07'0 0.0
2018-Feb-14 15:00N 38°26' W 009°07'5 6.1
2018-Feb-14 14:12N 38°24' W 009°12'1 7.3
2018-Feb-14 14:00N 38°25' W 009°14'4 7.5
2018-Feb-14 13:29N 38°28' W 009°17'4 7.5
2018-Feb-14 13:00N 38°31' W 009°19'4 7.5
2018-Feb-14 12:30N 38°34' W 009°22'3 7.1
2018-Feb-14 12:00N 38°37' W 009°24'3 6.7
2018-Feb-14 11:30N 38°40' W 009°27'0 1.0
2018-Feb-14 11:00N 38°39' W 009°27'1 1.0
2018-Feb-14 10:30N 38°39' W 009°26'1 1.3
2018-Feb-14 10:00N 38°38' W 009°26'1 1.3
2018-Feb-14 09:30N 38°38' W 009°25'1 1.1
2018-Feb-14 09:00N 38°38' W 009°25'2 3.9
2018-Feb-14 08:30N 38°36' W 009°23'4 7.2
2018-Feb-14 08:00N 38°33' W 009°21'4 7.2
2018-Feb-14 07:30N 38°30' W 009°18'4 7.5
2018-Feb-14 07:00N 38°27' W 009°16'4 7.4
2018-Feb-14 06:30N 38°24' W 009°13'7 6.0
2018-Feb-14 05:17N 38°21' W 009°05'1 3.0
2018-Feb-14 05:00N 38°20' W 009°04'2 0.4
2018-Feb-13 22:48N 38°20' W 009°07'2 5.9
2018-Feb-13 22:30N 38°22' W 009°06'3 6.5
2018-Feb-13 22:00N 38°25' W 009°06'1 2.6
2018-Feb-13 21:30N 38°26' W 009°07'0 0.0
2018-Feb-13 21:00N 38°26' W 009°07'0 0.0
2018-Feb-13 20:29N 38°26' W 009°07'0 0.0
2018-Feb-13 19:58N 38°26' W 009°07'0 0.0
2018-Feb-13 19:27N 38°26' W 009°07'0 0.0
2018-Feb-13 19:01N 38°26' W 009°07'0 0.0
2018-Feb-13 18:30N 38°26' W 009°07'0 0.0
2018-Feb-13 18:01N 38°26' W 009°07'0 0.0
2018-Feb-13 17:30N 38°26' W 009°07'0 0.0
2018-Feb-13 17:00N 38°26' W 009°07'0 0.0
2018-Feb-13 16:30N 38°26' W 009°07'0 0.0
2018-Feb-13 16:00N 38°26' W 009°07'0 0.0
2018-Feb-13 15:29N 38°26' W 009°07'0 0.0
2018-Feb-13 14:58N 38°26' W 009°07'0 0.0
2018-Feb-13 14:30N 38°26' W 009°07'0 0.0
2018-Feb-13 14:00N 38°26' W 009°07'0 0.0
2018-Feb-13 13:31N 38°26' W 009°07'0 0.0
2018-Feb-13 12:57N 38°26' W 009°07'5 5.4
2018-Feb-13 11:58N 38°24' W 009°13'3 7.0
2018-Feb-13 11:30N 38°27' W 009°16'4 7.0
2018-Feb-13 10:56N 38°30' W 009°19'3 7.3
2018-Feb-13 10:29N 38°33' W 009°21'4 7.5
2018-Feb-13 10:01N 38°36' W 009°24'3 2.9
2018-Feb-13 08:58N 38°38' W 009°25'3 5.8
2018-Feb-13 08:30N 38°36' W 009°23'3 6.5
2018-Feb-13 08:00N 38°33' W 009°21'3 6.5
2018-Feb-13 07:30N 38°30' W 009°19'3 6.7
2018-Feb-13 07:00N 38°28' W 009°17'3 6.5
2018-Feb-13 06:30N 38°25' W 009°15'3 6.4
2018-Feb-13 05:57N 38°23' W 009°11'6 2.0
2018-Feb-13 03:11N 38°21' W 009°05'0 0.8
2018-Feb-13 03:00N 38°21' W 009°05'0 0.9
2018-Feb-13 02:30N 38°21' W 009°05'1 0.5
2018-Feb-12 23:55N 38°20' W 009°07'2 5.7
2018-Feb-12 23:30N 38°22' W 009°07'3 6.4
2018-Feb-12 23:00N 38°25' W 009°06'1 1.8
2018-Feb-12 22:29N 38°26' W 009°07'0 0.0
2018-Feb-12 22:00N 38°26' W 009°07'0 0.0
2018-Feb-12 21:29N 38°26' W 009°07'0 0.0
2018-Feb-12 20:57N 38°26' W 009°07'0 0.0
2018-Feb-12 20:30N 38°26' W 009°07'0 0.0
2018-Feb-12 19:58N 38°26' W 009°07'0 0.0
2018-Feb-12 19:29N 38°26' W 009°07'0 0.0
2018-Feb-12 18:55N 38°26' W 009°07'0 0.0
2018-Feb-12 18:30N 38°26' W 009°07'0 0.0
2018-Feb-12 18:00N 38°26' W 009°07'0 0.0
2018-Feb-12 17:30N 38°26' W 009°07'0 0.0
2018-Feb-12 16:58N 38°26' W 009°07'0 0.0
2018-Feb-12 16:30N 38°26' W 009°07'0 0.0
2018-Feb-12 16:00N 38°26' W 009°07'0 0.0
2018-Feb-12 15:30N 38°26' W 009°07'0 0.0
2018-Feb-12 14:57N 38°26' W 009°07'0 0.6
2018-Feb-12 14:30N 38°26' W 009°06'3 6.4
2018-Feb-12 13:58N 38°23' W 009°06'3 1.9
2018-Feb-12 12:40N 38°21' W 009°04'1 7.1
2018-Feb-12 12:30N 38°22' W 009°04'4 7.1
2018-Feb-12 12:00N 38°25' W 009°06'1 2.5
2018-Feb-12 11:30N 38°26' W 009°07'0 0.0
2018-Feb-12 11:00N 38°26' W 009°07'  

Dump ship's entire track history